createdAt,value
2023-04-03T00:00:51.456Z,9.04
2023-04-03T00:03:19.155Z,9.05
2023-04-03T00:05:47.021Z,9.05
2023-04-03T00:08:13.855Z,9.04
2023-04-03T00:10:41.000Z,9.03
2023-04-03T00:13:07.984Z,9.04
2023-04-03T00:15:35.463Z,9.03
2023-04-03T00:18:02.977Z,9.03
2023-04-03T00:20:30.062Z,9.04
2023-04-03T00:22:56.833Z,9.04
2023-04-03T00:25:23.974Z,9.03
2023-04-03T00:27:50.857Z,9.02
2023-04-03T00:30:18.886Z,9.01
2023-04-03T00:32:45.691Z,8.99
2023-04-03T00:35:12.807Z,9.00
2023-04-03T00:37:39.648Z,8.99
2023-04-03T00:40:07.576Z,9.00
2023-04-03T00:42:34.350Z,8.97
2023-04-03T00:45:01.887Z,8.96
2023-04-03T00:47:28.691Z,8.97
2023-04-03T00:49:56.168Z,8.95
2023-04-03T00:52:24.791Z,8.91
2023-04-03T00:54:52.411Z,8.91
2023-04-03T00:57:19.250Z,8.94
2023-04-03T00:59:49.643Z,8.93
2023-04-03T01:02:16.598Z,8.91
2023-04-03T01:04:44.220Z,8.88
2023-04-03T01:07:17.216Z,8.83
2023-04-03T01:09:44.340Z,8.82
2023-04-03T01:12:20.705Z,8.85
2023-04-03T01:14:49.543Z,8.85
2023-04-03T01:17:25.796Z,8.85
2023-04-03T01:20:13.411Z,8.84
2023-04-03T01:23:01.066Z,8.85
2023-04-03T01:25:28.330Z,8.83
2023-04-03T01:27:55.072Z,8.84
2023-04-03T01:30:22.725Z,8.83
2023-04-03T01:32:49.581Z,8.80
2023-04-03T01:35:16.666Z,8.83
2023-04-03T01:37:43.447Z,8.79
2023-04-03T01:40:10.834Z,8.80
2023-04-03T01:42:37.591Z,8.78
2023-04-03T01:45:04.989Z,8.73
2023-04-03T01:47:31.858Z,8.74
2023-04-03T01:49:59.022Z,8.74
2023-04-03T01:52:25.843Z,8.72
2023-04-03T01:54:52.889Z,8.68
2023-04-03T01:57:19.649Z,8.68
2023-04-03T01:59:46.805Z,8.67
2023-04-03T02:02:15.618Z,8.68
2023-04-03T02:04:42.749Z,8.66
2023-04-03T02:07:09.587Z,8.63
2023-04-03T02:09:37.248Z,8.62
2023-04-03T02:12:04.025Z,8.64
2023-04-03T02:14:31.114Z,8.64
2023-04-03T02:16:57.955Z,8.64
2023-04-03T02:19:25.140Z,8.63
2023-04-03T02:21:51.903Z,8.56
2023-04-03T02:24:18.933Z,8.51
2023-04-03T02:26:45.801Z,8.52
2023-04-03T02:29:12.770Z,8.53
2023-04-03T02:31:39.570Z,8.53
2023-04-03T02:34:06.826Z,8.49
2023-04-03T02:36:33.616Z,8.49
2023-04-03T02:39:00.654Z,8.45
2023-04-03T02:41:34.587Z,8.43
2023-04-03T02:44:02.775Z,8.41
2023-04-03T02:46:29.664Z,8.42
2023-04-03T02:48:56.766Z,8.39
2023-04-03T02:51:24.048Z,8.39
2023-04-03T02:53:51.607Z,8.36
2023-04-03T02:56:19.141Z,8.36
2023-04-03T02:58:46.231Z,8.38
2023-04-03T03:01:13.040Z,8.39
2023-04-03T03:03:40.099Z,8.36
2023-04-03T03:06:08.780Z,8.38
2023-04-03T03:08:35.979Z,8.38
2023-04-03T03:11:02.957Z,8.36
2023-04-03T03:13:30.219Z,8.36
2023-04-03T03:15:56.994Z,8.33
2023-04-03T03:18:24.152Z,8.30
2023-04-03T03:20:54.691Z,8.31
2023-04-03T03:23:22.289Z,8.30
2023-04-03T03:25:49.034Z,8.29
2023-04-03T03:28:16.104Z,8.25
2023-04-03T03:30:42.886Z,8.25
2023-04-03T03:33:09.933Z,8.22
2023-04-03T03:35:37.286Z,8.17
2023-04-03T03:38:04.565Z,8.10
2023-04-03T03:40:31.356Z,8.10
2023-04-03T03:42:58.417Z,8.09
2023-04-03T03:45:25.878Z,8.07
2023-04-03T03:47:52.957Z,8.05
2023-04-03T03:50:19.732Z,8.06
2023-04-03T03:52:47.093Z,8.04
2023-04-03T03:55:13.995Z,8.05
2023-04-03T03:57:41.029Z,7.98
2023-04-03T04:00:08.405Z,7.98
2023-04-03T04:02:35.622Z,7.94
2023-04-03T04:05:02.719Z,7.96
2023-04-03T04:07:30.341Z,7.94
2023-04-03T04:09:57.075Z,7.93
2023-04-03T04:12:24.157Z,7.90
2023-04-03T04:14:50.902Z,7.88
2023-04-03T04:17:17.966Z,7.85
2023-04-03T04:19:44.731Z,7.82
2023-04-03T04:22:11.759Z,7.80
2023-04-03T04:24:39.682Z,7.78
2023-04-03T04:27:06.975Z,7.74
2023-04-03T04:29:36.745Z,7.73
2023-04-03T04:32:04.601Z,7.69
2023-04-03T04:34:31.559Z,7.67
2023-04-03T04:36:58.814Z,7.65
2023-04-03T04:39:25.639Z,7.64
2023-04-03T04:41:52.739Z,7.58
2023-04-03T04:44:19.908Z,7.56
2023-04-03T04:46:46.987Z,7.55
2023-04-03T04:49:13.710Z,7.56
2023-04-03T04:51:51.119Z,7.55
2023-04-03T04:54:18.704Z,7.52
2023-04-03T04:56:45.934Z,7.51
2023-04-03T04:59:12.761Z,7.48
2023-04-03T05:01:39.843Z,7.46
2023-04-03T05:04:06.612Z,7.41
2023-04-03T05:06:33.980Z,7.41
2023-04-03T05:09:01.064Z,7.39
2023-04-03T05:11:28.114Z,7.37
2023-04-03T05:13:54.952Z,7.33
2023-04-03T05:16:22.005Z,7.34
2023-04-03T05:18:48.766Z,7.31
2023-04-03T05:21:15.903Z,7.28
2023-04-03T05:23:42.640Z,7.27
2023-04-03T05:26:09.727Z,7.27
2023-04-03T05:28:36.882Z,7.23
2023-04-03T05:31:03.943Z,7.20
2023-04-03T05:33:30.695Z,7.18
2023-04-03T05:35:57.804Z,7.15
2023-04-03T05:38:24.675Z,7.17
2023-04-03T05:40:52.119Z,7.08
2023-04-03T05:43:18.907Z,7.09
2023-04-03T05:45:46.942Z,7.09
2023-04-03T05:48:14.041Z,7.11
2023-04-03T05:50:43.361Z,7.06
2023-04-03T05:53:21.979Z,7.09
2023-04-03T05:55:49.076Z,7.09
2023-04-03T05:58:16.115Z,7.14
2023-04-03T06:00:43.460Z,7.18
2023-04-03T06:03:10.390Z,7.15
2023-04-03T06:05:37.853Z,7.20
2023-04-03T06:08:04.791Z,7.19
2023-04-03T06:10:31.951Z,7.20
2023-04-03T06:12:58.789Z,7.18
2023-04-03T06:15:25.877Z,7.15
2023-04-03T06:17:52.819Z,7.18
2023-04-03T06:20:20.004Z,7.22
2023-04-03T06:22:46.932Z,7.23
2023-04-03T06:25:13.994Z,7.20
2023-04-03T06:27:41.136Z,7.32
2023-04-03T06:30:08.711Z,7.34
2023-04-03T06:32:35.512Z,7.36
2023-04-03T06:35:02.631Z,7.41
2023-04-03T06:37:30.795Z,7.46
2023-04-03T06:39:57.909Z,7.49
2023-04-03T06:42:24.979Z,7.50
2023-04-03T06:44:52.058Z,7.51
2023-04-03T06:47:18.875Z,7.52
2023-04-03T06:49:45.958Z,7.60
2023-04-03T06:52:15.502Z,7.57
2023-04-03T06:54:42.601Z,7.63
2023-04-03T06:57:09.513Z,7.71
2023-04-03T06:59:37.505Z,7.82
2023-04-03T07:02:04.838Z,7.77
2023-04-03T07:04:32.056Z,7.74
2023-04-03T07:06:58.845Z,7.79
2023-04-03T07:09:26.208Z,7.80
2023-04-03T07:11:52.952Z,7.86
2023-04-03T07:14:20.061Z,7.88
2023-04-03T07:16:46.794Z,7.94
2023-04-03T07:19:13.946Z,7.98
2023-04-03T07:21:41.671Z,7.96
2023-04-03T07:24:11.352Z,8.01
2023-04-03T07:26:42.047Z,8.07
2023-04-03T07:29:10.013Z,8.10
2023-04-03T07:31:36.870Z,8.13
2023-04-03T07:34:04.064Z,8.14
2023-04-03T07:36:34.300Z,8.16
2023-04-03T07:39:01.680Z,8.23
2023-04-03T07:41:29.678Z,8.27
2023-04-03T07:43:57.641Z,8.34
2023-04-03T07:46:24.778Z,8.43
2023-04-03T07:48:51.911Z,8.44
2023-04-03T07:51:18.812Z,8.46
2023-04-03T07:53:46.010Z,8.47
2023-04-03T07:56:12.901Z,8.50
2023-04-03T07:58:40.060Z,8.51
2023-04-03T08:01:07.166Z,8.53
2023-04-03T08:03:34.393Z,8.57
2023-04-03T08:06:06.053Z,8.53
2023-04-03T08:08:35.047Z,8.59
2023-04-03T08:11:03.406Z,8.67
2023-04-03T08:13:31.528Z,8.60
2023-04-03T08:16:00.081Z,8.63
2023-04-03T08:18:27.756Z,8.69
2023-04-03T08:20:54.644Z,8.72
2023-04-03T08:23:22.018Z,8.73
2023-04-03T08:25:48.795Z,8.83
2023-04-03T08:28:15.907Z,8.80
2023-04-03T08:30:43.492Z,8.79
2023-04-03T08:33:10.883Z,8.89
2023-04-03T08:35:41.821Z,8.90
2023-04-03T08:38:09.851Z,8.86
2023-04-03T08:40:36.672Z,8.96
2023-04-03T08:43:09.924Z,9.04
2023-04-03T08:45:52.647Z,9.04
2023-04-03T08:48:25.599Z,9.08
2023-04-03T08:50:58.141Z,9.10
2023-04-03T08:53:32.138Z,9.29
2023-04-03T08:55:59.108Z,9.65
2023-04-03T08:58:27.618Z,9.87
2023-04-03T09:01:03.674Z,9.85
2023-04-03T09:03:32.653Z,9.81
2023-04-03T09:06:04.650Z,9.77
2023-04-03T09:08:56.716Z,9.77
2023-04-03T09:11:49.771Z,9.91
2023-04-03T09:14:26.070Z,10.01
2023-04-03T09:16:55.957Z,9.98
2023-04-03T09:19:32.154Z,10.02
2023-04-03T09:22:08.757Z,9.96
2023-04-03T09:24:35.845Z,9.97
2023-04-03T09:27:05.410Z,9.89
2023-04-03T09:29:32.565Z,10.06
2023-04-03T09:32:03.621Z,10.03
2023-04-03T09:34:36.609Z,10.10
2023-04-03T09:37:09.860Z,10.17
2023-04-03T09:39:54.590Z,10.16
2023-04-03T09:42:23.679Z,10.20
2023-04-03T09:45:00.978Z,10.34
2023-04-03T09:47:34.192Z,10.25
2023-04-03T09:50:13.970Z,10.25
2023-04-03T09:52:45.012Z,10.44
2023-04-03T09:55:30.487Z,10.33
2023-04-03T09:58:02.187Z,10.24
2023-04-03T10:00:35.199Z,10.19
2023-04-03T10:03:01.964Z,10.12
2023-04-03T10:05:36.078Z,10.28
2023-04-03T10:08:14.912Z,10.37
2023-04-03T10:10:47.950Z,10.38
2023-04-03T10:13:21.476Z,10.51
2023-04-03T10:15:56.559Z,10.48
2023-04-03T10:18:46.531Z,10.47
2023-04-03T10:21:30.348Z,10.34
2023-04-03T10:24:09.771Z,10.42
2023-04-03T10:27:06.259Z,10.42
2023-04-03T10:29:32.981Z,10.57
2023-04-03T10:32:05.119Z,10.61
2023-04-03T10:34:38.299Z,10.74
2023-04-03T10:37:29.682Z,10.86
2023-04-03T10:40:33.396Z,10.93
2023-04-03T10:43:22.551Z,10.77
2023-04-03T10:46:03.460Z,10.81
2023-04-03T10:48:40.271Z,10.72
2023-04-03T10:51:35.121Z,10.86
2023-04-03T10:54:24.273Z,11.03
2023-04-03T10:57:01.328Z,10.96
2023-04-03T10:59:47.722Z,11.05
2023-04-03T11:02:20.340Z,11.23
2023-04-03T11:04:49.838Z,11.20
2023-04-03T11:07:32.777Z,11.32
2023-04-03T11:10:03.632Z,11.44
2023-04-03T11:12:46.050Z,11.56
2023-04-03T11:15:16.399Z,11.64
2023-04-03T11:17:51.865Z,11.72
2023-04-03T11:20:33.850Z,11.70
2023-04-03T11:23:06.777Z,11.68
2023-04-03T11:25:35.031Z,11.77
2023-04-03T11:28:03.617Z,11.79
2023-04-03T11:30:42.818Z,11.84
2023-04-03T11:33:27.998Z,11.87
2023-04-03T11:36:33.043Z,11.94
2023-04-03T11:39:03.478Z,12.01
2023-04-03T11:41:32.166Z,12.03
2023-04-03T11:44:00.317Z,12.12
2023-04-03T11:46:57.960Z,12.14
2023-04-03T11:50:04.076Z,12.12
2023-04-03T11:52:43.824Z,12.20
2023-04-03T11:55:21.193Z,12.24
2023-04-03T11:58:03.391Z,12.33
2023-04-03T12:00:45.793Z,12.30
2023-04-03T12:03:43.385Z,12.20
2023-04-03T12:06:37.036Z,12.35
2023-04-03T12:09:13.846Z,12.23
2023-04-03T12:11:40.859Z,12.35
2023-04-03T12:14:17.406Z,12.31
2023-04-03T12:16:47.003Z,12.30
2023-04-03T12:19:42.629Z,12.40
2023-04-03T12:22:17.378Z,12.36
2023-04-03T12:24:46.835Z,12.26
2023-04-03T12:27:31.328Z,12.17
2023-04-03T12:30:04.659Z,12.40
2023-04-03T12:33:11.951Z,12.46
2023-04-03T12:35:55.791Z,12.42
2023-04-03T12:38:35.426Z,12.42
2023-04-03T12:41:27.024Z,12.56
2023-04-03T12:44:32.532Z,12.54
2023-04-03T12:47:01.321Z,12.61
2023-04-03T12:49:35.219Z,12.64
2023-04-03T12:52:07.010Z,12.64
2023-04-03T12:54:36.556Z,12.65
2023-04-03T12:57:30.097Z,12.58
2023-04-03T12:59:57.423Z,12.53
2023-04-03T13:02:32.016Z,12.65
2023-04-03T13:05:00.632Z,12.68
2023-04-03T13:07:34.380Z,12.74
2023-04-03T13:10:07.996Z,12.71
2023-04-03T13:12:51.925Z,12.57
2023-04-03T13:15:23.739Z,12.66
2023-04-03T13:17:52.686Z,12.69
2023-04-03T13:20:21.081Z,12.75
2023-04-03T13:22:49.295Z,12.81
2023-04-03T13:25:16.489Z,12.78
2023-04-03T13:27:45.090Z,12.73
2023-04-03T13:30:38.763Z,12.69
2023-04-03T13:33:08.206Z,12.83
2023-04-03T13:35:40.059Z,12.78
2023-04-03T13:38:18.166Z,12.81
2023-04-03T13:40:55.894Z,12.91
2023-04-03T13:43:25.812Z,12.92
2023-04-03T13:46:06.579Z,12.93
2023-04-03T13:48:58.212Z,12.85
2023-04-03T13:51:29.047Z,12.80
2023-04-03T13:54:02.776Z,12.74
2023-04-03T13:56:34.020Z,12.84
2023-04-03T13:59:26.493Z,12.93
2023-04-03T14:01:55.155Z,12.88
2023-04-03T14:04:28.794Z,12.95
2023-04-03T14:06:55.751Z,12.93
2023-04-03T14:09:23.620Z,12.94
2023-04-03T14:11:51.792Z,12.93
2023-04-03T14:14:29.056Z,12.93
2023-04-03T14:16:56.919Z,12.80
2023-04-03T14:19:26.838Z,12.77
2023-04-03T14:21:54.675Z,12.88
2023-04-03T14:24:22.680Z,12.89
2023-04-03T14:26:53.510Z,12.91
2023-04-03T14:29:21.518Z,12.92
2023-04-03T14:31:49.642Z,12.85
2023-04-03T14:34:17.868Z,12.91
2023-04-03T14:36:44.985Z,12.91
2023-04-03T14:39:17.280Z,12.82
2023-04-03T14:41:44.152Z,12.83
2023-04-03T14:44:11.285Z,12.78
2023-04-03T14:46:55.551Z,12.70
2023-04-03T14:49:26.504Z,12.74
2023-04-03T14:54:59.622Z,12.77
2023-04-03T14:57:27.803Z,12.60
2023-04-03T14:59:54.964Z,12.53
2023-04-03T15:02:33.323Z,12.53
2023-04-03T15:05:01.681Z,12.55
2023-04-03T15:07:29.867Z,12.56
2023-04-03T15:09:59.669Z,12.56
2023-04-03T15:12:26.776Z,12.55
2023-04-03T15:15:01.884Z,12.54
2023-04-03T15:17:30.994Z,12.47
2023-04-03T15:19:57.816Z,12.43
2023-04-03T15:22:25.013Z,12.33
2023-04-03T15:24:51.885Z,12.35
2023-04-03T15:27:19.094Z,12.35
2023-04-03T15:29:46.026Z,12.35
2023-04-03T15:32:13.374Z,12.37
2023-04-03T15:34:40.556Z,12.28
2023-04-03T15:37:07.657Z,12.26
2023-04-03T15:39:34.507Z,12.23
2023-04-03T15:42:06.990Z,12.23
2023-04-03T15:44:35.053Z,12.20
2023-04-03T15:47:02.150Z,12.05
2023-04-03T15:49:29.020Z,12.10
2023-04-03T15:51:56.146Z,12.12
2023-04-03T15:54:25.009Z,12.10
2023-04-03T15:56:52.860Z,11.99
2023-04-03T15:59:20.001Z,11.96
2023-04-03T16:01:47.171Z,11.88
2023-04-03T16:04:15.580Z,11.84
2023-04-03T16:06:43.329Z,11.81
2023-04-03T16:09:10.190Z,11.80
2023-04-03T16:11:40.106Z,11.77
2023-04-03T16:14:10.356Z,11.69
2023-04-03T16:16:39.018Z,11.75
2023-04-03T16:19:05.983Z,11.75
2023-04-03T16:21:33.738Z,11.62
2023-04-03T16:24:00.604Z,11.56
2023-04-03T16:26:27.804Z,11.60
2023-04-03T16:28:55.126Z,11.51
2023-04-03T16:31:22.911Z,11.54
2023-04-03T16:33:49.740Z,11.50
2023-04-03T16:36:16.903Z,11.43
2023-04-03T16:38:43.679Z,11.47
2023-04-03T16:41:10.876Z,11.42
2023-04-03T16:43:37.949Z,11.42
2023-04-03T16:46:05.531Z,11.35
2023-04-03T16:48:32.465Z,11.33
2023-04-03T16:50:59.598Z,11.37
2023-04-03T16:53:27.291Z,11.34
2023-04-03T16:55:54.524Z,11.27
2023-04-03T16:58:23.405Z,11.27
2023-04-03T17:00:51.733Z,11.18
2023-04-03T17:03:18.603Z,11.08
2023-04-03T17:05:48.572Z,11.09
2023-04-03T17:08:16.806Z,11.11
2023-04-03T17:10:43.942Z,11.02
2023-04-03T17:13:10.840Z,11.05
2023-04-03T17:15:38.175Z,10.99
2023-04-03T17:18:05.626Z,11.00
2023-04-03T17:20:34.729Z,10.92
2023-04-03T17:23:01.564Z,10.86
2023-04-03T17:25:28.774Z,10.85
2023-04-03T17:27:55.645Z,10.77
2023-04-03T17:30:22.913Z,10.78
2023-04-03T17:32:49.763Z,10.76
2023-04-03T17:35:17.014Z,10.77
2023-04-03T17:37:43.802Z,10.68
2023-04-03T17:40:14.305Z,10.73
2023-04-03T17:42:41.237Z,10.68
2023-04-03T17:45:08.781Z,10.61
2023-04-03T17:47:35.782Z,10.56
2023-04-03T17:50:02.900Z,10.53
2023-04-03T17:52:31.909Z,10.40
2023-04-03T17:54:59.026Z,10.42
2023-04-03T17:57:26.005Z,10.34
2023-04-03T17:59:54.073Z,10.32
2023-04-03T18:02:21.175Z,10.32
2023-04-03T18:04:50.729Z,10.21
2023-04-03T18:07:17.523Z,10.26
2023-04-03T18:09:44.752Z,10.26
2023-04-03T18:12:11.562Z,10.22
2023-04-03T18:14:38.649Z,10.25
2023-04-03T18:17:05.492Z,10.24
2023-04-03T18:19:32.913Z,10.21
2023-04-03T18:22:19.268Z,10.20
2023-04-03T18:24:46.394Z,10.22
2023-04-03T18:27:14.512Z,10.16
2023-04-03T18:29:43.253Z,10.11
2023-04-03T18:32:10.648Z,10.06
2023-04-03T18:34:38.148Z,10.11
2023-04-03T18:37:06.032Z,10.02
2023-04-03T18:39:33.185Z,10.04
2023-04-03T18:42:03.778Z,9.99
2023-04-03T18:44:31.157Z,9.97
2023-04-03T18:46:59.935Z,9.99
2023-04-03T18:49:30.563Z,9.98
2023-04-03T18:51:57.323Z,9.97
2023-04-03T18:54:24.538Z,9.96
2023-04-03T18:56:51.433Z,9.96
2023-04-03T18:59:18.616Z,9.95
2023-04-03T19:01:45.451Z,9.93
2023-04-03T19:04:12.651Z,9.88
2023-04-03T19:06:39.616Z,9.86
2023-04-03T19:09:06.960Z,9.86
2023-04-03T19:11:34.258Z,9.86
2023-04-03T19:14:10.565Z,9.85
2023-04-03T19:16:42.007Z,9.81
2023-04-03T19:19:09.057Z,9.80
2023-04-03T19:21:40.748Z,9.78
2023-04-03T19:24:12.050Z,9.77
2023-04-03T19:26:39.305Z,9.73
2023-04-03T19:29:06.500Z,9.66
2023-04-03T19:31:34.029Z,9.61
2023-04-03T19:34:02.628Z,9.63
2023-04-03T19:36:30.476Z,9.57
2023-04-03T19:38:57.583Z,9.55
2023-04-03T19:41:25.356Z,9.55
2023-04-03T19:43:52.707Z,9.56
2023-04-03T19:46:24.611Z,9.52
2023-04-03T19:48:52.241Z,9.51
2023-04-03T19:51:19.192Z,9.45
2023-04-03T19:53:47.568Z,9.45
2023-04-03T19:56:16.624Z,9.40
2023-04-03T19:58:43.917Z,9.37
2023-04-03T20:01:11.319Z,9.35
2023-04-03T20:03:39.253Z,9.38
2023-04-03T20:06:06.153Z,9.29
2023-04-03T20:08:33.335Z,9.29
2023-04-03T20:11:00.164Z,9.29
2023-04-03T20:13:27.359Z,9.25
2023-04-03T20:15:54.180Z,9.22
2023-04-03T20:18:21.474Z,9.21
2023-04-03T20:20:55.612Z,9.13
2023-04-03T20:23:23.097Z,9.15
2023-04-03T20:26:01.549Z,9.09
2023-04-03T20:28:36.343Z,9.08
2023-04-03T20:31:03.834Z,9.06
2023-04-03T20:33:31.027Z,9.05
2023-04-03T20:35:58.150Z,9.01
2023-04-03T20:38:25.416Z,8.98
2023-04-03T20:40:52.463Z,9.01
2023-04-03T20:43:21.774Z,8.99
2023-04-03T20:45:49.365Z,8.97
2023-04-03T20:48:18.241Z,8.95
2023-04-03T20:50:45.951Z,8.94
2023-04-03T20:55:40.333Z,8.89
2023-04-03T20:58:07.751Z,8.86
2023-04-03T21:00:34.518Z,8.84
2023-04-03T21:03:01.755Z,8.84
2023-04-03T21:05:30.681Z,8.83
2023-04-03T21:08:36.002Z,8.79
2023-04-03T21:11:40.604Z,8.76
2023-04-03T21:14:46.887Z,8.71
2023-04-03T21:17:13.823Z,8.75
2023-04-03T21:19:46.095Z,8.72
2023-04-03T21:22:13.716Z,8.71
2023-04-03T21:24:41.110Z,8.70
2023-04-03T21:27:08.187Z,8.68
2023-04-03T21:29:35.283Z,8.65
2023-04-03T21:32:02.198Z,8.65
2023-04-03T21:34:30.330Z,8.64
2023-04-03T21:37:01.076Z,8.64
2023-04-03T21:39:28.459Z,8.62
2023-04-03T21:41:55.323Z,8.59
2023-04-03T21:44:22.761Z,8.58
2023-04-03T21:46:53.720Z,8.56
2023-04-03T21:49:21.523Z,8.53
2023-04-03T21:51:48.463Z,8.44
2023-04-03T21:54:15.992Z,8.50
2023-04-03T21:56:42.845Z,8.49
2023-04-03T21:59:10.143Z,8.47
2023-04-03T22:01:37.196Z,8.47
2023-04-03T22:04:04.423Z,8.48
2023-04-03T22:06:31.263Z,8.44
2023-04-03T22:08:58.482Z,8.44
2023-04-03T22:11:27.257Z,8.43
2023-04-03T22:13:55.041Z,8.41
2023-04-03T22:16:23.532Z,8.39
2023-04-03T22:18:52.130Z,8.35
2023-04-03T22:21:19.090Z,8.32
2023-04-03T22:23:46.377Z,8.33
2023-04-03T22:26:13.437Z,8.33
2023-04-03T22:28:47.012Z,8.31
2023-04-03T22:31:14.537Z,8.27
2023-04-03T22:33:42.629Z,8.27
2023-04-03T22:36:10.712Z,8.25
2023-04-03T22:38:38.961Z,8.24
2023-04-03T22:41:07.217Z,8.25
2023-04-03T22:43:35.326Z,8.18
2023-04-03T22:46:09.132Z,8.21
2023-04-03T22:48:37.285Z,8.19
2023-04-03T22:51:07.451Z,8.17
2023-04-03T22:53:35.586Z,8.15
2023-04-03T22:56:03.404Z,8.15
2023-04-03T22:58:30.564Z,8.14
2023-04-03T23:01:05.517Z,8.13
2023-04-03T23:03:32.906Z,8.12
2023-04-03T23:06:01.490Z,8.11
2023-04-03T23:08:29.639Z,8.10
2023-04-03T23:10:57.789Z,8.07
2023-04-03T23:13:25.128Z,8.08
2023-04-03T23:15:58.635Z,8.08
2023-04-03T23:18:29.629Z,8.05
2023-04-03T23:20:57.134Z,8.03
2023-04-03T23:23:24.301Z,8.02
2023-04-03T23:25:57.108Z,8.01
2023-04-03T23:28:24.700Z,7.98
2023-04-03T23:31:01.771Z,7.99
2023-04-03T23:33:30.575Z,7.95
2023-04-03T23:35:58.644Z,7.97
2023-04-03T23:38:25.943Z,7.93
2023-04-03T23:40:52.699Z,7.92
2023-04-03T23:43:19.783Z,7.92
2023-04-03T23:45:46.723Z,7.89
2023-04-03T23:48:14.137Z,7.88
2023-04-03T23:50:42.629Z,7.87
2023-04-03T23:53:09.847Z,7.86
2023-04-03T23:55:36.955Z,7.82
2023-04-03T23:58:04.105Z,7.82
